Time;durP1;ratioP1;P1;durP2;ratioP2;P2;SDS_P1;SDS_P2;PMS_P1;PMS_P2;Temp;Humidity;BMP_temperature;BMP_pressure;BME280_temperature;BME280_humidity;BME280_pressure;Samples;Min_cycle;Max_cycle;Signal;HPM_P1;HPM_P2
2022/07/21 00:00:46;;;;;;;378.05;260.63;;;;;;;;;;5006344;28;20224;-74
2022/07/21 00:03:12;;;;;;;427.83;287.35;;;;;;;;;;5004078;28;20185;-72
2022/07/21 00:05:38;;;;;;;465.33;299.48;;;;;;;;;;5002377;28;20228;-72
2022/07/21 00:08:04;;;;;;;374.48;258.33;;;;;;;;;;5006185;28;20286;-73
2022/07/21 00:10:30;;;;;;;370.55;255.80;;;;;;;;;;5003182;28;20718;-73
2022/07/21 00:12:56;;;;;;;398.15;266.55;;;;;;;;;;5005122;28;20220;-74
2022/07/21 00:15:23;;;;;;;480.05;303.25;;;;;;;;;;5002105;28;21949;-72
2022/07/21 00:17:49;;;;;;;388.05;269.10;;;;;;;;;;5003261;28;20195;-73
2022/07/21 00:20:16;;;;;;;407.35;272.25;;;;;;;;;;5005019;28;20263;-73
2022/07/21 00:22:42;;;;;;;382.50;260.20;;;;;;;;;;5006889;28;20214;-73
2022/07/21 00:25:09;;;;;;;390.63;265.33;;;;;;;;;;5004720;28;20235;-73
2022/07/21 00:27:36;;;;;;;369.23;253.95;;;;;;;;;;5006384;28;20469;-73
2022/07/21 00:30:03;;;;;;;397.90;266.88;;;;;;;;;;5005530;28;20733;-73
2022/07/21 00:32:29;;;;;;;394.35;263.45;;;;;;;;;;5008198;28;20275;-73
2022/07/21 00:34:55;;;;;;;438.95;283.75;;;;;;;;;;5003707;28;20225;-73
2022/07/21 00:37:23;;;;;;;417.27;271.15;;;;;;;;;;5002912;28;20224;-72
2022/07/21 00:39:49;;;;;;;386.60;265.20;;;;;;;;;;5005036;28;20221;-73
2022/07/21 00:42:22;;;;;;;399.92;268.90;;;;;;;;;;5004294;28;20200;-73
2022/07/21 00:44:48;;;;;;;373.55;265.23;;;;;;;;;;5001171;28;20225;-73
2022/07/21 00:47:14;;;;;;;401.92;268.77;;;;;;;;;;5007238;28;20243;-73
2022/07/21 00:49:42;;;;;;;397.98;268.73;;;;;;;;;;5002171;28;20710;-74
2022/07/21 00:52:08;;;;;;;378.38;253.85;;;;;;;;;;4996231;28;20231;-74
2022/07/21 00:54:34;;;;;;;358.58;249.55;;;;;;;;;;5016606;28;20192;-73
2022/07/21 00:57:00;;;;;;;386.05;266.70;;;;;;;;;;5002455;28;20247;-73
2022/07/21 00:59:26;;;;;;;407.33;271.27;;;;;;;;;;5005657;28;20229;-73
2022/07/21 01:01:52;;;;;;;402.35;270.85;;;;;;;;;;4999811;28;20232;-72
2022/07/21 01:04:18;;;;;;;402.67;269.85;;;;;;;;;;5006689;28;20220;-73
2022/07/21 01:06:44;;;;;;;377.75;256.30;;;;;;;;;;4996401;28;20591;-74
2022/07/21 01:09:10;;;;;;;373.45;246.90;;;;;;;;;;5000505;28;20193;-73
2022/07/21 01:11:36;;;;;;;418.10;267.58;;;;;;;;;;5001722;28;20223;-74
2022/07/21 01:14:02;;;;;;;387.00;253.88;;;;;;;;;;5001799;28;20228;-73
2022/07/21 01:16:28;;;;;;;375.00;247.55;;;;;;;;;;5002305;28;20228;-73
2022/07/21 01:18:55;;;;;;;408.23;265.65;;;;;;;;;;5002928;28;20216;-72
2022/07/21 01:21:32;;;;;;;514.45;322.58;;;;;;;;;;4999619;28;20209;-72
2022/07/21 01:23:58;;;;;;;537.70;337.48;;;;;;;;;;5000300;28;20788;-72
2022/07/21 01:26:24;;;;;;;387.30;249.55;;;;;;;;;;4999876;28;20225;-73
2022/07/21 01:28:50;;;;;;;476.33;300.45;;;;;;;;;;5016334;28;20217;-72
2022/07/21 01:31:16;;;;;;;409.77;260.15;;;;;;;;;;5000811;28;20558;-72
2022/07/21 01:33:42;;;;;;;385.25;250.18;;;;;;;;;;5006092;28;20232;-73
2022/07/21 01:36:08;;;;;;;363.88;238.50;;;;;;;;;;4998329;28;20200;-74
2022/07/21 01:41:28;;;;;;;376.05;246.60;;;;;;;;;;5001222;28;20228;-72
2022/07/21 01:43:54;;;;;;;429.67;274.83;;;;;;;;;;5004115;28;20566;-72
2022/07/21 01:46:20;;;;;;;409.27;261.85;;;;;;;;;;5006282;28;20216;-73
2022/07/21 01:48:46;;;;;;;380.65;244.98;;;;;;;;;;5005798;28;20216;-73
2022/07/21 01:51:12;;;;;;;413.85;257.05;;;;;;;;;;5001849;28;20203;-73
2022/07/21 01:53:39;;;;;;;381.90;250.65;;;;;;;;;;5006097;28;20208;-73
2022/07/21 01:56:05;;;;;;;378.50;244.13;;;;;;;;;;5002911;28;20212;-72
2022/07/21 01:58:31;;;;;;;373.25;238.75;;;;;;;;;;5000150;28;20221;-72
2022/07/21 02:00:57;;;;;;;416.00;266.02;;;;;;;;;;5003292;28;20228;-73
2022/07/21 02:03:23;;;;;;;446.80;275.13;;;;;;;;;;4996659;28;20204;-73
2022/07/21 02:05:49;;;;;;;439.15;271.02;;;;;;;;;;4997845;28;20196;-72
2022/07/21 02:08:15;;;;;;;409.42;254.27;;;;;;;;;;4998285;28;20209;-73
2022/07/21 02:10:41;;;;;;;451.90;273.20;;;;;;;;;;5000518;28;20220;-73
2022/07/21 02:13:07;;;;;;;370.33;240.05;;;;;;;;;;5004868;28;20209;-73
2022/07/21 02:15:33;;;;;;;415.17;264.90;;;;;;;;;;5000950;28;20376;-73
2022/07/21 02:17:59;;;;;;;405.00;255.15;;;;;;;;;;5022047;28;20204;-72
2022/07/21 02:20:25;;;;;;;373.92;241.52;;;;;;;;;;5007837;28;20221;-73
2022/07/21 02:22:52;;;;;;;384.92;247.15;;;;;;;;;;5002717;28;20213;-72
2022/07/21 02:25:18;;;;;;;420.92;254.05;;;;;;;;;;5008170;28;20228;-73
2022/07/21 02:27:44;;;;;;;359.02;226.98;;;;;;;;;;5008265;28;20678;-74
2022/07/21 02:30:11;;;;;;;398.80;245.23;;;;;;;;;;5008177;28;20177;-73
2022/07/21 02:32:37;;;;;;;384.92;240.52;;;;;;;;;;5019864;28;20217;-73
2022/07/21 02:35:03;;;;;;;389.25;242.15;;;;;;;;;;5024168;28;20312;-73
2022/07/21 02:37:29;;;;;;;354.92;227.20;;;;;;;;;;5005958;28;20217;-74
2022/07/21 02:39:55;;;;;;;384.20;241.55;;;;;;;;;;5020143;28;20205;-73
2022/07/21 02:42:21;;;;;;;399.63;245.65;;;;;;;;;;5003710;28;20531;-72
2022/07/21 02:44:47;;;;;;;364.52;232.88;;;;;;;;;;5010178;28;20536;-73
2022/07/21 02:47:13;;;;;;;362.70;231.05;;;;;;;;;;5011133;28;20477;-73
2022/07/21 02:49:39;;;;;;;360.48;235.13;;;;;;;;;;5004716;28;20220;-72
2022/07/21 02:52:05;;;;;;;424.67;264.17;;;;;;;;;;5005411;28;20217;-73
2022/07/21 02:54:31;;;;;;;359.83;234.75;;;;;;;;;;5008303;28;20197;-73
2022/07/21 02:56:57;;;;;;;422.05;267.52;;;;;;;;;;5002493;28;20864;-73
2022/07/21 02:59:23;;;;;;;375.30;244.95;;;;;;;;;;5001954;28;20292;-73
2022/07/21 03:01:49;;;;;;;402.33;260.08;;;;;;;;;;5002434;28;20224;-72
2022/07/21 03:04:15;;;;;;;389.63;240.75;;;;;;;;;;5005591;28;20239;-73
2022/07/21 03:06:42;;;;;;;380.95;235.50;;;;;;;;;;5007020;28;20177;-73
2022/07/21 03:09:08;;;;;;;387.45;242.75;;;;;;;;;;5007465;28;20181;-73
2022/07/21 03:11:34;;;;;;;374.00;230.63;;;;;;;;;;5008507;28;20263;-73
2022/07/21 03:14:00;;;;;;;388.48;238.13;;;;;;;;;;5006179;28;20237;-72
2022/07/21 03:16:26;;;;;;;416.67;252.27;;;;;;;;;;5006223;28;20579;-73
2022/07/21 03:18:51;;;;;;;376.23;247.25;;;;;;;;;;5002402;28;20723;-73
2022/07/21 03:21:17;;;;;;;387.33;250.77;;;;;;;;;;5006111;28;20216;-73
2022/07/21 03:23:45;;;;;;;426.88;267.60;;;;;;;;;;4997624;28;20221;-73
2022/07/21 03:26:12;;;;;;;408.15;251.45;;;;;;;;;;4999037;28;20708;-74
2022/07/21 03:28:39;;;;;;;405.73;251.00;;;;;;;;;;4999200;28;20678;-73
2022/07/21 03:31:04;;;;;;;365.70;229.32;;;;;;;;;;5003511;28;20745;-73
2022/07/21 03:33:30;;;;;;;425.52;262.55;;;;;;;;;;5000040;28;20189;-73
2022/07/21 03:35:58;;;;;;;380.13;243.48;;;;;;;;;;5006974;28;20199;-73
2022/07/21 03:38:24;;;;;;;417.40;260.90;;;;;;;;;;5015905;28;20208;-73
2022/07/21 03:40:50;;;;;;;406.90;260.30;;;;;;;;;;5005704;28;20606;-72
2022/07/21 03:43:16;;;;;;;418.20;257.38;;;;;;;;;;5018341;28;20213;-72
2022/07/21 03:45:42;;;;;;;426.88;258.25;;;;;;;;;;4999876;28;20567;-74
2022/07/21 03:48:08;;;;;;;386.30;231.00;;;;;;;;;;5006389;28;20634;-74
2022/07/21 03:50:35;;;;;;;361.08;234.65;;;;;;;;;;5005236;28;20693;-73
2022/07/21 03:53:01;;;;;;;434.45;267.23;;;;;;;;;;4998803;28;20551;-73
2022/07/21 03:55:27;;;;;;;436.42;265.80;;;;;;;;;;5001121;28;20218;-73
2022/07/21 03:57:57;;;;;;;396.33;254.18;;;;;;;;;;5002539;28;20659;-73
2022/07/21 04:00:41;;;;;;;384.67;246.50;;;;;;;;;;5004603;28;20208;-72
2022/07/21 04:03:07;;;;;;;374.80;233.68;;;;;;;;;;5003606;28;20169;-73
2022/07/21 04:05:33;;;;;;;431.35;266.00;;;;;;;;;;5005506;28;20588;-73
2022/07/21 04:08:00;;;;;;;380.58;244.95;;;;;;;;;;5003025;28;20216;-72
2022/07/21 04:10:28;;;;;;;397.83;248.27;;;;;;;;;;4999676;28;20221;-72
2022/07/21 04:12:54;;;;;;;403.08;240.45;;;;;;;;;;5006798;28;20219;-72
2022/07/21 04:15:20;;;;;;;434.38;252.30;;;;;;;;;;5003602;28;20280;-73
2022/07/21 04:17:47;;;;;;;375.70;231.45;;;;;;;;;;5006532;28;20239;-73
2022/07/21 04:20:13;;;;;;;363.73;229.65;;;;;;;;;;5004665;28;20223;-73
2022/07/21 04:22:40;;;;;;;403.95;248.52;;;;;;;;;;5001692;28;20271;-72
2022/07/21 04:25:07;;;;;;;383.23;228.57;;;;;;;;;;5002739;28;20647;-74
2022/07/21 04:27:33;;;;;;;415.80;250.60;;;;;;;;;;5001363;28;20184;-73
2022/07/21 04:29:59;;;;;;;397.65;244.10;;;;;;;;;;5004164;28;20200;-73
2022/07/21 04:32:25;;;;;;;391.70;235.35;;;;;;;;;;5007109;28;20290;-73
2022/07/21 04:34:51;;;;;;;403.98;240.63;;;;;;;;;;5003546;28;20217;-73
2022/07/21 04:37:18;;;;;;;350.20;217.40;;;;;;;;;;5000689;28;20730;-74
2022/07/21 04:39:44;;;;;;;336.30;211.00;;;;;;;;;;5004161;28;20223;-74
2022/07/21 04:42:10;;;;;;;374.40;224.77;;;;;;;;;;5006789;28;20297;-73
2022/07/21 04:44:36;;;;;;;375.75;228.85;;;;;;;;;;5008364;28;20217;-73
2022/07/21 04:47:02;;;;;;;442.63;266.30;;;;;;;;;;5000430;28;20234;-73
2022/07/21 04:49:28;;;;;;;390.67;238.32;;;;;;;;;;4999488;28;20221;-73
2022/07/21 04:51:54;;;;;;;373.42;230.60;;;;;;;;;;5001293;28;20236;-73
2022/07/21 04:54:20;;;;;;;459.15;266.90;;;;;;;;;;4998994;28;20276;-74
2022/07/21 04:56:46;;;;;;;359.65;224.70;;;;;;;;;;5001599;28;20244;-74
2022/07/21 04:59:12;;;;;;;375.63;227.40;;;;;;;;;;5007609;28;20213;-73
2022/07/21 05:01:39;;;;;;;402.48;242.73;;;;;;;;;;5000689;28;21526;-73
2022/07/21 05:04:05;;;;;;;354.42;220.68;;;;;;;;;;5003890;28;20326;-71
2022/07/21 05:06:31;;;;;;;379.77;232.70;;;;;;;;;;5000347;28;20177;-71
2022/07/21 05:08:57;;;;;;;375.10;234.52;;;;;;;;;;5004636;28;20623;-73
2022/07/21 05:11:23;;;;;;;389.27;235.70;;;;;;;;;;4996908;28;20231;-65
2022/07/21 05:13:49;;;;;;;469.90;288.25;;;;;;;;;;4991947;28;20224;-58
2022/07/21 05:16:15;;;;;;;915.70;527.20;;;;;;;;;;4976205;28;20232;-58
2022/07/21 05:18:41;;;;;;;397.88;259.38;;;;;;;;;;5001576;28;20178;-58
2022/07/21 05:21:07;;;;;;;383.08;241.18;;;;;;;;;;5004490;28;20266;-58
2022/07/21 05:23:33;;;;;;;444.73;270.60;;;;;;;;;;4978686;28;21742;-58
2022/07/21 05:25:59;;;;;;;434.52;271.15;;;;;;;;;;4999330;28;20270;-58
2022/07/21 05:28:25;;;;;;;368.38;243.15;;;;;;;;;;5000774;28;20266;-58
2022/07/21 05:30:51;;;;;;;405.52;257.85;;;;;;;;;;5000429;28;20275;-59
2022/07/21 05:33:17;;;;;;;404.67;256.13;;;;;;;;;;5004825;28;20251;-60
2022/07/21 05:35:42;;;;;;;425.92;267.75;;;;;;;;;;5002190;28;20225;-60
2022/07/21 05:38:08;;;;;;;386.30;248.38;;;;;;;;;;4994514;28;20248;-59
2022/07/21 05:40:34;;;;;;;426.10;270.02;;;;;;;;;;4995124;28;20972;-60
2022/07/21 05:43:00;;;;;;;425.70;273.45;;;;;;;;;;4991440;28;20275;-60
2022/07/21 05:45:26;;;;;;;395.02;246.95;;;;;;;;;;4998674;28;20192;-60
2022/07/21 05:47:52;;;;;;;421.73;258.50;;;;;;;;;;5001973;28;20181;-58
2022/07/21 05:50:18;;;;;;;404.98;248.30;;;;;;;;;;4993888;28;20363;-58
2022/07/21 05:52:44;;;;;;;348.60;225.00;;;;;;;;;;5005603;28;20224;-58
2022/07/21 05:55:10;;;;;;;468.02;284.42;;;;;;;;;;4992438;28;20220;-58
2022/07/21 05:57:37;;;;;;;479.10;288.45;;;;;;;;;;4997982;28;20299;-59
2022/07/21 06:00:04;;;;;;;448.95;273.60;;;;;;;;;;5007244;28;20176;-59
2022/07/21 06:02:31;;;;;;;408.10;259.08;;;;;;;;;;4995436;28;20223;-60
2022/07/21 06:04:57;;;;;;;482.08;305.58;;;;;;;;;;4983861;28;20217;-59
2022/07/21 06:07:23;;;;;;;383.58;249.85;;;;;;;;;;4999502;28;20567;-59
2022/07/21 06:09:50;;;;;;;412.25;262.60;;;;;;;;;;4999002;28;20224;-58
2022/07/21 06:12:16;;;;;;;379.67;246.70;;;;;;;;;;5009488;28;20542;-58
2022/07/21 06:14:42;;;;;;;423.55;271.90;;;;;;;;;;4993674;28;20216;-58
2022/07/21 06:17:08;;;;;;;433.25;267.30;;;;;;;;;;4988615;28;20264;-58
2022/07/21 06:19:34;;;;;;;480.00;302.80;;;;;;;;;;5002835;28;20224;-58
2022/07/21 06:22:00;;;;;;;431.88;285.70;;;;;;;;;;4998867;28;20235;-59
2022/07/21 06:24:26;;;;;;;420.42;279.83;;;;;;;;;;5005048;28;20671;-58
2022/07/21 06:26:55;;;;;;;422.38;271.27;;;;;;;;;;5002261;28;20184;-58
2022/07/21 06:29:21;;;;;;;395.05;255.07;;;;;;;;;;5000582;28;20220;-58
2022/07/21 06:31:47;;;;;;;411.52;269.70;;;;;;;;;;5000500;28;20225;-58
2022/07/21 06:34:13;;;;;;;438.58;279.90;;;;;;;;;;5002411;28;20222;-58
2022/07/21 06:36:39;;;;;;;452.70;287.40;;;;;;;;;;4995149;28;20528;-58
2022/07/21 06:39:05;;;;;;;401.42;263.63;;;;;;;;;;5001729;28;20189;-58
2022/07/21 06:41:31;;;;;;;386.10;257.45;;;;;;;;;;5000069;28;20227;-58
2022/07/21 06:43:57;;;;;;;405.88;266.27;;;;;;;;;;5003367;28;20214;-59
2022/07/21 06:46:22;;;;;;;464.17;297.52;;;;;;;;;;4992738;28;20730;-58
2022/07/21 06:48:48;;;;;;;454.02;300.52;;;;;;;;;;4999514;28;20216;-58
2022/07/21 06:51:14;;;;;;;468.83;309.30;;;;;;;;;;5000453;28;20197;-58
2022/07/21 06:53:42;;;;;;;410.38;281.67;;;;;;;;;;5001196;28;20227;-58
2022/07/21 06:56:08;;;;;;;406.38;276.95;;;;;;;;;;4998279;28;20666;-58
2022/07/21 06:58:35;;;;;;;494.48;326.77;;;;;;;;;;5000920;28;21641;-58
2022/07/21 07:01:01;;;;;;;473.30;317.40;;;;;;;;;;5003573;28;21018;-58
2022/07/21 07:03:27;;;;;;;396.48;282.45;;;;;;;;;;5001886;28;20197;-57
2022/07/21 07:05:52;;;;;;;458.75;311.65;;;;;;;;;;5005050;28;20186;-59
2022/07/21 07:08:18;;;;;;;434.75;288.13;;;;;;;;;;5007972;28;20227;-59
2022/07/21 07:10:48;;;;;;;416.90;282.45;;;;;;;;;;5003243;28;20582;-59
2022/07/21 07:13:15;;;;;;;388.05;260.10;;;;;;;;;;5008319;28;20788;-59
2022/07/21 07:15:41;;;;;;;564.92;358.77;;;;;;;;;;5003817;28;20539;-59
2022/07/21 07:18:07;;;;;;;416.25;276.35;;;;;;;;;;4999531;28;20176;-59
2022/07/21 07:20:33;;;;;;;487.90;317.70;;;;;;;;;;5001795;28;20228;-59
2022/07/21 07:22:59;;;;;;;461.95;300.38;;;;;;;;;;4999970;28;20216;-59
2022/07/21 07:25:25;;;;;;;437.10;282.80;;;;;;;;;;4987917;28;20288;-59
2022/07/21 07:27:51;;;;;;;405.95;279.05;;;;;;;;;;5005977;28;20228;-59
2022/07/21 07:30:18;;;;;;;451.92;297.00;;;;;;;;;;5001209;28;20204;-59
2022/07/21 07:32:46;;;;;;;362.30;261.90;;;;;;;;;;4994919;28;20229;-59
2022/07/21 07:35:12;;;;;;;411.95;276.52;;;;;;;;;;5003546;28;20231;-59
2022/07/21 07:37:39;;;;;;;423.55;289.00;;;;;;;;;;5008222;28;20216;-59
2022/07/21 07:40:07;;;;;;;443.52;310.30;;;;;;;;;;5005437;28;20221;-59
2022/07/21 07:42:33;;;;;;;462.25;317.92;;;;;;;;;;5006293;28;20181;-59
2022/07/21 07:44:59;;;;;;;418.60;304.02;;;;;;;;;;4999564;28;20177;-59
2022/07/21 07:47:25;;;;;;;410.27;309.90;;;;;;;;;;5002779;28;20267;-59
2022/07/21 07:49:52;;;;;;;429.67;313.55;;;;;;;;;;5001705;28;20213;-71
2022/07/21 07:52:18;;;;;;;408.48;286.92;;;;;;;;;;5007660;28;20232;-71
2022/07/21 07:54:44;;;;;;;432.05;306.02;;;;;;;;;;5000857;28;20220;-71
2022/07/21 07:57:10;;;;;;;407.02;279.40;;;;;;;;;;5000171;28;20453;-71
2022/07/21 07:59:36;;;;;;;412.42;283.90;;;;;;;;;;5003419;28;20217;-71
2022/07/21 08:02:02;;;;;;;413.90;287.40;;;;;;;;;;5003509;28;20271;-71
2022/07/21 08:04:28;;;;;;;367.88;269.05;;;;;;;;;;5008822;28;20599;-70
2022/07/21 08:06:54;;;;;;;428.17;296.55;;;;;;;;;;5009460;28;20217;-70
2022/07/21 08:09:20;;;;;;;421.42;302.77;;;;;;;;;;5003678;28;22323;-70
2022/07/21 08:11:50;;;;;;;414.15;297.17;;;;;;;;;;5005599;28;20699;-70
2022/07/21 08:14:16;;;;;;;390.23;275.38;;;;;;;;;;5002584;28;20216;-71
2022/07/21 08:16:42;;;;;;;463.08;317.13;;;;;;;;;;5004109;28;20663;-71
2022/07/21 08:19:08;;;;;;;400.23;288.00;;;;;;;;;;4997946;28;20733;-71
2022/07/21 08:21:34;;;;;;;397.95;296.40;;;;;;;;;;4998168;28;20213;-70
2022/07/21 08:24:01;;;;;;;468.35;331.98;;;;;;;;;;4999080;28;20510;-71
2022/07/21 08:26:27;;;;;;;418.95;301.95;;;;;;;;;;5001306;28;20252;-71
2022/07/21 08:28:54;;;;;;;574.08;377.40;;;;;;;;;;4992479;28;21805;-71
2022/07/21 08:31:20;;;;;;;480.20;327.42;;;;;;;;;;4989911;28;20229;-70
2022/07/21 08:33:46;;;;;;;453.08;316.17;;;;;;;;;;4999061;28;20216;-69
2022/07/21 08:36:12;;;;;;;457.35;314.00;;;;;;;;;;5002479;28;20189;-71
2022/07/21 08:38:38;;;;;;;419.02;297.60;;;;;;;;;;5001872;28;20229;-71
2022/07/21 08:41:04;;;;;;;427.08;305.70;;;;;;;;;;4997940;28;20291;-73
2022/07/21 08:43:31;;;;;;;478.75;329.20;;;;;;;;;;4993280;28;20970;-71
2022/07/21 08:45:57;;;;;;;485.73;331.02;;;;;;;;;;4994447;28;20770;-71
2022/07/21 08:48:26;;;;;;;466.58;324.52;;;;;;;;;;4995521;28;20185;-74
2022/07/21 08:50:53;;;;;;;429.85;308.33;;;;;;;;;;5007403;28;20213;-73
2022/07/21 08:53:19;;;;;;;386.70;282.25;;;;;;;;;;5009082;28;20220;-73
2022/07/21 08:55:45;;;;;;;417.02;301.95;;;;;;;;;;5007585;28;20714;-73
2022/07/21 08:58:12;;;;;;;389.25;304.63;;;;;;;;;;5007735;28;20279;-73
2022/07/21 09:00:39;;;;;;;380.83;284.98;;;;;;;;;;5014388;28;20211;-73
2022/07/21 09:03:09;;;;;;;349.55;273.98;;;;;;;;;;5010904;28;20181;-74
2022/07/21 09:05:35;;;;;;;424.05;313.02;;;;;;;;;;5007378;28;20221;-74
2022/07/21 09:08:01;;;;;;;410.02;314.67;;;;;;;;;;5006523;28;20220;-74
2022/07/21 09:10:28;;;;;;;370.90;298.42;;;;;;;;;;5019135;28;20238;-74
2022/07/21 09:12:56;;;;;;;543.60;362.45;;;;;;;;;;4997717;28;20221;-76
2022/07/21 09:15:23;;;;;;;391.15;310.85;;;;;;;;;;5001917;28;20181;-74
2022/07/21 09:18:07;;;;;;;429.17;321.20;;;;;;;;;;5002233;28;20180;-76
2022/07/21 09:20:34;;;;;;;375.27;308.17;;;;;;;;;;5004244;28;20213;-75
2022/07/21 09:23:09;;;;;;;415.15;310.80;;;;;;;;;;4996597;28;20224;-74
2022/07/21 09:25:36;;;;;;;513.20;356.30;;;;;;;;;;4989960;28;20220;-75
2022/07/21 09:28:12;;;;;;;471.58;340.02;;;;;;;;;;4995389;28;20714;-75
2022/07/21 09:30:48;;;;;;;396.58;298.77;;;;;;;;;;5003624;28;20200;-75
2022/07/21 09:33:31;;;;;;;438.27;321.17;;;;;;;;;;5002632;28;20211;-77
2022/07/21 09:36:00;;;;;;;555.22;375.50;;;;;;;;;;4992324;28;20215;-75
2022/07/21 09:38:27;;;;;;;373.80;286.77;;;;;;;;;;5003034;28;20744;-73
2022/07/21 09:40:53;;;;;;;413.58;313.70;;;;;;;;;;4999364;28;20982;-72
2022/07/21 09:43:36;;;;;;;383.02;296.08;;;;;;;;;;4999691;28;20228;-76
2022/07/21 09:46:05;;;;;;;465.58;342.13;;;;;;;;;;4996474;28;20226;-74
2022/07/21 09:48:38;;;;;;;431.92;337.58;;;;;;;;;;5001471;28;20184;-75
2022/07/21 09:51:23;;;;;;;376.80;304.58;;;;;;;;;;5003564;28;20208;-75
2022/07/21 09:53:53;;;;;;;404.17;316.13;;;;;;;;;;5006138;28;20263;-74
2022/07/21 09:56:20;;;;;;;383.13;303.15;;;;;;;;;;5002611;28;20216;-75
2022/07/21 09:58:47;;;;;;;410.83;327.73;;;;;;;;;;5005128;28;20224;-74
2022/07/21 10:01:13;;;;;;;431.30;330.83;;;;;;;;;;5002304;28;20232;-74
2022/07/21 10:03:39;;;;;;;397.45;323.58;;;;;;;;;;5009742;28;20180;-74
2022/07/21 10:06:06;;;;;;;396.00;311.90;;;;;;;;;;5002183;28;20649;-74
2022/07/21 10:08:33;;;;;;;417.67;326.80;;;;;;;;;;5001908;28;20229;-74
2022/07/21 10:10:59;;;;;;;500.70;371.55;;;;;;;;;;4995273;28;20245;-74
2022/07/21 10:13:27;;;;;;;430.38;344.08;;;;;;;;;;5003537;28;21104;-73
2022/07/21 10:15:54;;;;;;;404.67;335.40;;;;;;;;;;5005511;28;20235;-73
2022/07/21 10:18:22;;;;;;;447.65;348.38;;;;;;;;;;5001516;28;20184;-73
2022/07/21 10:20:51;;;;;;;436.88;348.17;;;;;;;;;;5000798;28;20279;-74
2022/07/21 10:23:22;;;;;;;364.08;307.60;;;;;;;;;;5005108;28;20235;-74
2022/07/21 10:25:48;;;;;;;415.40;337.70;;;;;;;;;;5001464;28;20690;-74
2022/07/21 10:28:17;;;;;;;459.65;358.17;;;;;;;;;;5003941;28;20254;-74
2022/07/21 10:30:44;;;;;;;375.38;321.67;;;;;;;;;;5005465;28;20233;-74
2022/07/21 10:33:10;;;;;;;432.25;327.52;;;;;;;;;;5001324;28;20401;-75
2022/07/21 10:35:40;;;;;;;485.92;356.83;;;;;;;;;;5002889;28;20695;-76
2022/07/21 10:38:06;;;;;;;372.30;312.60;;;;;;;;;;4996703;28;20253;-74
2022/07/21 10:40:32;;;;;;;413.23;318.80;;;;;;;;;;5000064;28;20220;-74
2022/07/21 10:43:04;;;;;;;409.58;319.23;;;;;;;;;;5009677;28;20216;-74
2022/07/21 10:45:34;;;;;;;437.65;331.20;;;;;;;;;;5008745;28;20189;-74
2022/07/21 10:48:00;;;;;;;392.42;317.10;;;;;;;;;;5004768;28;20176;-74
2022/07/21 10:50:35;;;;;;;381.73;316.90;;;;;;;;;;4998964;28;20226;-73
2022/07/21 10:53:05;;;;;;;446.30;345.25;;;;;;;;;;5001735;28;20216;-74
2022/07/21 10:55:37;;;;;;;414.10;324.10;;;;;;;;;;5007833;28;20717;-72
2022/07/21 10:58:19;;;;;;;386.52;307.83;;;;;;;;;;5001154;28;20225;-73
2022/07/21 11:00:46;;;;;;;381.52;312.23;;;;;;;;;;5006756;28;20330;-73
2022/07/21 11:03:20;;;;;;;441.88;339.00;;;;;;;;;;4999356;28;21030;-73
2022/07/21 11:06:05;;;;;;;469.27;354.48;;;;;;;;;;5007989;28;20358;-74
2022/07/21 11:08:31;;;;;;;463.40;358.17;;;;;;;;;;5007797;28;20213;-74
2022/07/21 11:11:07;;;;;;;414.60;338.33;;;;;;;;;;5003967;28;20347;-74
2022/07/21 11:13:53;;;;;;;387.13;320.88;;;;;;;;;;5019124;28;20243;-74
2022/07/21 11:16:19;;;;;;;505.35;374.52;;;;;;;;;;5000278;28;20217;-73
2022/07/21 11:18:45;;;;;;;406.38;333.02;;;;;;;;;;5001568;28;20227;-74
2022/07/21 11:21:15;;;;;;;394.48;331.42;;;;;;;;;;5008668;28;20256;-73
2022/07/21 11:23:42;;;;;;;469.10;364.65;;;;;;;;;;5002878;28;20213;-74
2022/07/21 11:26:09;;;;;;;388.08;326.70;;;;;;;;;;5002354;28;20220;-75
2022/07/21 11:28:35;;;;;;;402.42;334.75;;;;;;;;;;5008431;28;20221;-73
2022/07/21 11:31:08;;;;;;;430.27;353.10;;;;;;;;;;5007797;28;20229;-73
2022/07/21 11:33:36;;;;;;;391.70;330.63;;;;;;;;;;5010129;28;20254;-73
2022/07/21 11:36:03;;;;;;;420.42;349.83;;;;;;;;;;5004198;28;20224;-73
2022/07/21 11:38:29;;;;;;;386.05;337.35;;;;;;;;;;5009492;28;20228;-74
2022/07/21 11:41:12;;;;;;;402.77;338.35;;;;;;;;;;5011468;28;20216;-74
2022/07/21 11:43:41;;;;;;;430.13;351.85;;;;;;;;;;5004397;28;20218;-74
2022/07/21 11:46:07;;;;;;;434.02;354.73;;;;;;;;;;5003724;28;20683;-74
2022/07/21 11:48:33;;;;;;;395.05;339.95;;;;;;;;;;5007299;28;20188;-74
2022/07/21 11:51:03;;;;;;;418.60;355.65;;;;;;;;;;5007141;28;20219;-74
2022/07/21 11:53:29;;;;;;;383.48;327.80;;;;;;;;;;5006636;28;20235;-74
2022/07/21 11:55:55;;;;;;;416.88;354.92;;;;;;;;;;5002415;28;20209;-74
2022/07/21 11:58:21;;;;;;;390.02;346.95;;;;;;;;;;5007591;28;20255;-74
2022/07/21 12:00:47;;;;;;;423.92;360.13;;;;;;;;;;5009570;28;20221;-74
2022/07/21 12:03:14;;;;;;;388.80;344.52;;;;;;;;;;5004797;28;20639;-74
2022/07/21 12:05:43;;;;;;;405.75;352.55;;;;;;;;;;5006234;28;20213;-75
2022/07/21 12:08:09;;;;;;;393.80;351.23;;;;;;;;;;4996000;28;20213;-74
2022/07/21 12:10:37;;;;;;;409.15;354.02;;;;;;;;;;5004774;28;20271;-74
2022/07/21 12:13:06;;;;;;;395.13;345.73;;;;;;;;;;5003820;28;20217;-74
2022/07/21 12:15:36;;;;;;;430.50;383.10;;;;;;;;;;4996020;28;20211;-73
2022/07/21 12:18:07;;;;;;;460.55;383.33;;;;;;;;;;4998971;28;20642;-74
2022/07/21 12:20:36;;;;;;;432.20;374.95;;;;;;;;;;4997765;28;20675;-77
2022/07/21 12:23:17;;;;;;;463.60;388.45;;;;;;;;;;5015518;28;20217;-74
2022/07/21 12:25:43;;;;;;;548.28;425.70;;;;;;;;;;4998454;28;20286;-73
2022/07/21 12:28:09;;;;;;;436.17;363.77;;;;;;;;;;4987807;28;20812;-74
2022/07/21 12:30:43;;;;;;;433.42;367.75;;;;;;;;;;4996736;28;20209;-76
2022/07/21 12:33:11;;;;;;;413.38;353.77;;;;;;;;;;4997198;28;20298;-75
2022/07/21 12:35:38;;;;;;;482.58;379.20;;;;;;;;;;4997983;28;20216;-74
2022/07/21 12:38:06;;;;;;;412.55;352.02;;;;;;;;;;4999804;28;20615;-77
2022/07/21 12:40:33;;;;;;;478.63;377.70;;;;;;;;;;4988223;28;20221;-77
2022/07/21 12:43:19;;;;;;;403.27;350.88;;;;;;;;;;5002166;28;20231;-74
2022/07/21 12:45:46;;;;;;;467.70;375.80;;;;;;;;;;4991936;28;20221;-77
2022/07/21 12:48:13;;;;;;;416.38;354.52;;;;;;;;;;4995531;28;20188;-75
2022/07/21 12:50:39;;;;;;;448.63;359.00;;;;;;;;;;4994675;28;20704;-75
2022/07/21 12:53:13;;;;;;;445.58;355.92;;;;;;;;;;4995379;28;20217;-75
2022/07/21 12:55:40;;;;;;;477.10;373.70;;;;;;;;;;4994868;28;20221;-75
2022/07/21 12:58:06;;;;;;;396.00;331.42;;;;;;;;;;4999558;28;20229;-76
2022/07/21 13:00:32;;;;;;;412.30;335.77;;;;;;;;;;4996216;28;20209;-76
2022/07/21 13:02:58;;;;;;;460.35;369.70;;;;;;;;;;5001220;28;20184;-76
2022/07/21 13:05:25;;;;;;;406.50;332.83;;;;;;;;;;4996829;28;20216;-75
2022/07/21 13:07:51;;;;;;;480.50;368.75;;;;;;;;;;5002007;28;20209;-75
2022/07/21 13:10:17;;;;;;;417.80;335.33;;;;;;;;;;4996346;28;20447;-75
2022/07/21 13:12:43;;;;;;;405.77;339.65;;;;;;;;;;5004374;28;20335;-76
2022/07/21 13:15:10;;;;;;;383.73;335.60;;;;;;;;;;5004346;28;20192;-75
2022/07/21 13:17:36;;;;;;;431.08;347.02;;;;;;;;;;4998071;28;20678;-75
2022/07/21 13:20:02;;;;;;;461.90;357.63;;;;;;;;;;5002307;28;20263;-74
2022/07/21 13:22:28;;;;;;;434.40;340.08;;;;;;;;;;5002084;28;20221;-74
2022/07/21 13:24:54;;;;;;;395.40;323.42;;;;;;;;;;5003341;28;20548;-76
2022/07/21 13:27:20;;;;;;;413.05;333.05;;;;;;;;;;4998771;28;21210;-75
2022/07/21 13:29:46;;;;;;;484.25;364.02;;;;;;;;;;4993591;28;20256;-75
2022/07/21 13:32:12;;;;;;;419.08;339.55;;;;;;;;;;5015181;28;20232;-70
2022/07/21 13:34:38;;;;;;;471.02;365.95;;;;;;;;;;5002953;28;20213;-70
2022/07/21 13:37:04;;;;;;;392.23;320.40;;;;;;;;;;4996319;28;20228;-70
2022/07/21 13:39:31;;;;;;;392.70;319.67;;;;;;;;;;4998979;28;20181;-69
2022/07/21 13:41:57;;;;;;;526.92;388.13;;;;;;;;;;4995653;28;20189;-68
2022/07/21 13:44:23;;;;;;;402.05;328.30;;;;;;;;;;4995170;28;20225;-70
2022/07/21 13:46:49;;;;;;;525.67;384.25;;;;;;;;;;4992340;28;21045;-69
2022/07/21 13:49:15;;;;;;;482.50;363.67;;;;;;;;;;5008780;28;20348;-70
2022/07/21 13:51:42;;;;;;;402.80;327.38;;;;;;;;;;4995874;28;20321;-69
2022/07/21 13:54:08;;;;;;;386.33;335.23;;;;;;;;;;5001322;28;20188;-69